sensor_id;sensor_type;location;lat;lon;timestamp;P1;durP1;ratioP1;P2;durP2;ratioP2
16310;SDS011;8264;48.510;8.872;2022-11-14T00:00:00;10.23;;;8.03;;
16310;SDS011;8264;48.510;8.872;2022-11-14T00:02:26;11.70;;;8.90;;
16310;SDS011;8264;48.510;8.872;2022-11-14T00:04:53;9.13;;;7.90;;
16310;SDS011;8264;48.510;8.872;2022-11-14T00:07:19;9.37;;;7.50;;
16310;SDS011;8264;48.510;8.872;2022-11-14T00:09:47;8.73;;;7.80;;
16310;SDS011;8264;48.510;8.872;2022-11-14T00:12:14;10.03;;;8.40;;
16310;SDS011;8264;48.510;8.872;2022-11-14T00:14:40;11.93;;;9.00;;
16310;SDS011;8264;48.510;8.872;2022-11-14T00:17:07;10.63;;;8.37;;
16310;SDS011;8264;48.510;8.872;2022-11-14T00:19:33;10.47;;;8.70;;
16310;SDS011;8264;48.510;8.872;2022-11-14T00:22:00;12.67;;;9.53;;
16310;SDS011;8264;48.510;8.872;2022-11-14T00:24:26;11.07;;;9.37;;
16310;SDS011;8264;48.510;8.872;2022-11-14T00:26:54;12.13;;;8.83;;
16310;SDS011;8264;48.510;8.872;2022-11-14T00:29:21;11.73;;;8.37;;
16310;SDS011;8264;48.510;8.872;2022-11-14T00:31:47;10.20;;;7.50;;
16310;SDS011;8264;48.510;8.872;2022-11-14T00:34:14;13.97;;;8.07;;
16310;SDS011;8264;48.510;8.872;2022-11-14T00:36:41;9.53;;;7.60;;
16310;SDS011;8264;48.510;8.872;2022-11-14T00:39:08;10.47;;;8.23;;
16310;SDS011;8264;48.510;8.872;2022-11-14T00:41:36;8.97;;;6.97;;
16310;SDS011;8264;48.510;8.872;2022-11-14T00:44:04;12.47;;;7.53;;
16310;SDS011;8264;48.510;8.872;2022-11-14T00:46:31;10.37;;;7.23;;
16310;SDS011;8264;48.510;8.872;2022-11-14T00:48:57;9.60;;;8.10;;
16310;SDS011;8264;48.510;8.872;2022-11-14T00:51:24;11.83;;;8.73;;
16310;SDS011;8264;48.510;8.872;2022-11-14T00:53:50;11.97;;;8.80;;
16310;SDS011;8264;48.510;8.872;2022-11-14T00:56:17;14.27;;;10.17;;
16310;SDS011;8264;48.510;8.872;2022-11-14T00:58:43;12.70;;;9.13;;
16310;SDS011;8264;48.510;8.872;2022-11-14T01:01:11;12.40;;;9.33;;
16310;SDS011;8264;48.510;8.872;2022-11-14T01:03:38;11.07;;;8.57;;
16310;SDS011;8264;48.510;8.872;2022-11-14T01:06:05;12.07;;;8.97;;
16310;SDS011;8264;48.510;8.872;2022-11-14T01:08:33;12.37;;;9.67;;
16310;SDS011;8264;48.510;8.872;2022-11-14T01:11:00;30.90;;;10.77;;
16310;SDS011;8264;48.510;8.872;2022-11-14T01:13:29;11.23;;;8.60;;
16310;SDS011;8264;48.510;8.872;2022-11-14T01:15:58;11.87;;;9.57;;
16310;SDS011;8264;48.510;8.872;2022-11-14T01:18:26;12.37;;;9.23;;
16310;SDS011;8264;48.510;8.872;2022-11-14T01:20:53;12.70;;;9.30;;
16310;SDS011;8264;48.510;8.872;2022-11-14T01:23:20;11.90;;;9.30;;
16310;SDS011;8264;48.510;8.872;2022-11-14T01:25:46;12.13;;;9.90;;
16310;SDS011;8264;48.510;8.872;2022-11-14T01:28:14;12.80;;;10.00;;
16310;SDS011;8264;48.510;8.872;2022-11-14T01:30:41;11.83;;;9.40;;
16310;SDS011;8264;48.510;8.872;2022-11-14T01:33:08;11.50;;;8.73;;
16310;SDS011;8264;48.510;8.872;2022-11-14T01:35:36;14.83;;;9.80;;
16310;SDS011;8264;48.510;8.872;2022-11-14T01:38:03;12.30;;;9.47;;
16310;SDS011;8264;48.510;8.872;2022-11-14T01:40:30;12.17;;;8.83;;
16310;SDS011;8264;48.510;8.872;2022-11-14T01:45:51;10.43;;;7.77;;
16310;SDS011;8264;48.510;8.872;2022-11-14T01:48:20;11.73;;;9.17;;
16310;SDS011;8264;48.510;8.872;2022-11-14T01:50:51;10.13;;;8.03;;
16310;SDS011;8264;48.510;8.872;2022-11-14T01:53:20;11.53;;;9.03;;
16310;SDS011;8264;48.510;8.872;2022-11-14T01:55:46;9.60;;;7.97;;
16310;SDS011;8264;48.510;8.872;2022-11-14T01:58:13;11.43;;;8.30;;
16310;SDS011;8264;48.510;8.872;2022-11-14T02:00:40;10.17;;;7.60;;
16310;SDS011;8264;48.510;8.872;2022-11-14T02:03:06;8.47;;;7.17;;
16310;SDS011;8264;48.510;8.872;2022-11-14T02:05:33;11.03;;;8.47;;
16310;SDS011;8264;48.510;8.872;2022-11-14T02:08:01;11.23;;;9.10;;
16310;SDS011;8264;48.510;8.872;2022-11-14T02:10:28;12.73;;;9.57;;
16310;SDS011;8264;48.510;8.872;2022-11-14T02:12:54;11.70;;;9.20;;
16310;SDS011;8264;48.510;8.872;2022-11-14T02:15:21;10.80;;;8.20;;
16310;SDS011;8264;48.510;8.872;2022-11-14T02:17:48;11.70;;;8.90;;
16310;SDS011;8264;48.510;8.872;2022-11-14T02:20:18;9.47;;;8.40;;
16310;SDS011;8264;48.510;8.872;2022-11-14T02:22:45;10.90;;;8.23;;
16310;SDS011;8264;48.510;8.872;2022-11-14T02:25:12;10.50;;;8.23;;
16310;SDS011;8264;48.510;8.872;2022-11-14T02:27:40;9.80;;;8.13;;
16310;SDS011;8264;48.510;8.872;2022-11-14T02:30:07;11.93;;;8.37;;
16310;SDS011;8264;48.510;8.872;2022-11-14T02:32:35;11.63;;;8.27;;
16310;SDS011;8264;48.510;8.872;2022-11-14T02:35:02;10.07;;;7.83;;
16310;SDS011;8264;48.510;8.872;2022-11-14T02:39:58;10.90;;;7.83;;
16310;SDS011;8264;48.510;8.872;2022-11-14T02:42:24;11.47;;;8.67;;
16310;SDS011;8264;48.510;8.872;2022-11-14T02:44:51;10.90;;;8.80;;
16310;SDS011;8264;48.510;8.872;2022-11-14T02:47:17;9.93;;;8.23;;
16310;SDS011;8264;48.510;8.872;2022-11-14T02:49:44;10.67;;;8.57;;
16310;SDS011;8264;48.510;8.872;2022-11-14T02:52:10;11.47;;;9.00;;
16310;SDS011;8264;48.510;8.872;2022-11-14T02:54:38;12.53;;;8.87;;
16310;SDS011;8264;48.510;8.872;2022-11-14T02:57:05;13.23;;;8.83;;
16310;SDS011;8264;48.510;8.872;2022-11-14T02:59:31;13.47;;;9.30;;
16310;SDS011;8264;48.510;8.872;2022-11-14T03:01:58;14.63;;;9.80;;
16310;SDS011;8264;48.510;8.872;2022-11-14T03:04:24;18.27;;;10.43;;
16310;SDS011;8264;48.510;8.872;2022-11-14T03:06:51;18.60;;;10.40;;
16310;SDS011;8264;48.510;8.872;2022-11-14T03:09:17;19.90;;;10.67;;
16310;SDS011;8264;48.510;8.872;2022-11-14T03:11:45;15.50;;;10.83;;
16310;SDS011;8264;48.510;8.872;2022-11-14T03:14:12;15.63;;;10.37;;
16310;SDS011;8264;48.510;8.872;2022-11-14T03:16:39;21.53;;;13.50;;
16310;SDS011;8264;48.510;8.872;2022-11-14T03:19:05;38.87;;;11.77;;
16310;SDS011;8264;48.510;8.872;2022-11-14T03:21:32;19.07;;;10.93;;
16310;SDS011;8264;48.510;8.872;2022-11-14T03:23:58;21.20;;;11.83;;
16310;SDS011;8264;48.510;8.872;2022-11-14T03:26:25;18.60;;;11.10;;
16310;SDS011;8264;48.510;8.872;2022-11-14T03:28:52;18.30;;;9.97;;
16310;SDS011;8264;48.510;8.872;2022-11-14T03:31:20;20.70;;;11.73;;
16310;SDS011;8264;48.510;8.872;2022-11-14T03:33:46;21.47;;;11.63;;
16310;SDS011;8264;48.510;8.872;2022-11-14T03:36:13;25.37;;;12.13;;
16310;SDS011;8264;48.510;8.872;2022-11-14T03:38:39;28.23;;;11.17;;
16310;SDS011;8264;48.510;8.872;2022-11-14T03:41:06;13.43;;;10.57;;
16310;SDS011;8264;48.510;8.872;2022-11-14T03:43:33;24.00;;;12.03;;
16310;SDS011;8264;48.510;8.872;2022-11-14T03:46:02;15.10;;;9.87;;
16310;SDS011;8264;48.510;8.872;2022-11-14T03:48:28;14.93;;;10.70;;
16310;SDS011;8264;48.510;8.872;2022-11-14T03:50:56;20.37;;;11.03;;
16310;SDS011;8264;48.510;8.872;2022-11-14T03:53:23;17.67;;;10.93;;
16310;SDS011;8264;48.510;8.872;2022-11-14T03:55:49;17.03;;;10.10;;
16310;SDS011;8264;48.510;8.872;2022-11-14T03:58:16;77.10;;;12.30;;
16310;SDS011;8264;48.510;8.872;2022-11-14T04:00:42;29.57;;;11.20;;
16310;SDS011;8264;48.510;8.872;2022-11-14T04:03:10;27.17;;;11.50;;
16310;SDS011;8264;48.510;8.872;2022-11-14T04:05:37;36.17;;;10.20;;
16310;SDS011;8264;48.510;8.872;2022-11-14T04:08:03;32.87;;;11.37;;
16310;SDS011;8264;48.510;8.872;2022-11-14T04:10:30;26.97;;;10.00;;
16310;SDS011;8264;48.510;8.872;2022-11-14T04:12:56;14.57;;;8.60;;
16310;SDS011;8264;48.510;8.872;2022-11-14T04:15:23;15.80;;;9.70;;
16310;SDS011;8264;48.510;8.872;2022-11-14T04:17:49;24.80;;;9.70;;
16310;SDS011;8264;48.510;8.872;2022-11-14T04:20:17;14.53;;;8.93;;
16310;SDS011;8264;48.510;8.872;2022-11-14T04:22:44;10.87;;;8.87;;
16310;SDS011;8264;48.510;8.872;2022-11-14T04:25:11;10.17;;;8.37;;
16310;SDS011;8264;48.510;8.872;2022-11-14T04:27:37;11.80;;;8.50;;
16310;SDS011;8264;48.510;8.872;2022-11-14T04:30:04;10.07;;;7.63;;
16310;SDS011;8264;48.510;8.872;2022-11-14T04:32:32;10.37;;;8.33;;
16310;SDS011;8264;48.510;8.872;2022-11-14T04:34:58;9.37;;;8.03;;
16310;SDS011;8264;48.510;8.872;2022-11-14T04:37:26;8.67;;;7.63;;
16310;SDS011;8264;48.510;8.872;2022-11-14T04:39:52;8.70;;;7.27;;
16310;SDS011;8264;48.510;8.872;2022-11-14T04:42:22;9.53;;;8.13;;
16310;SDS011;8264;48.510;8.872;2022-11-14T04:44:49;10.17;;;8.47;;
16310;SDS011;8264;48.510;8.872;2022-11-14T04:47:15;9.20;;;7.53;;
16310;SDS011;8264;48.510;8.872;2022-11-14T04:49:42;13.47;;;10.17;;
16310;SDS011;8264;48.510;8.872;2022-11-14T04:52:08;11.17;;;9.60;;
16310;SDS011;8264;48.510;8.872;2022-11-14T04:54:36;12.97;;;10.30;;
16310;SDS011;8264;48.510;8.872;2022-11-14T04:57:03;11.53;;;8.97;;
16310;SDS011;8264;48.510;8.872;2022-11-14T04:59:29;12.07;;;10.77;;
16310;SDS011;8264;48.510;8.872;2022-11-14T05:01:56;11.97;;;10.10;;
16310;SDS011;8264;48.510;8.872;2022-11-14T05:04:22;10.20;;;8.80;;
16310;SDS011;8264;48.510;8.872;2022-11-14T05:06:49;13.07;;;9.90;;
16310;SDS011;8264;48.510;8.872;2022-11-14T05:09:15;11.63;;;9.53;;
16310;SDS011;8264;48.510;8.872;2022-11-14T05:11:43;10.07;;;8.03;;
16310;SDS011;8264;48.510;8.872;2022-11-14T05:14:09;12.10;;;9.33;;
16310;SDS011;8264;48.510;8.872;2022-11-14T05:16:36;9.87;;;7.90;;
16310;SDS011;8264;48.510;8.872;2022-11-14T05:19:02;9.73;;;8.10;;
16310;SDS011;8264;48.510;8.872;2022-11-14T05:21:29;10.53;;;8.30;;
16310;SDS011;8264;48.510;8.872;2022-11-14T05:23:56;9.93;;;7.70;;
16310;SDS011;8264;48.510;8.872;2022-11-14T05:26:22;9.33;;;7.70;;
16310;SDS011;8264;48.510;8.872;2022-11-14T05:28:50;11.23;;;7.90;;
16310;SDS011;8264;48.510;8.872;2022-11-14T05:31:17;14.93;;;9.70;;
16310;SDS011;8264;48.510;8.872;2022-11-14T05:33:43;10.27;;;8.17;;
16310;SDS011;8264;48.510;8.872;2022-11-14T05:36:11;13.17;;;9.20;;
16310;SDS011;8264;48.510;8.872;2022-11-14T05:38:39;10.87;;;8.03;;
16310;SDS011;8264;48.510;8.872;2022-11-14T05:41:06;10.63;;;8.70;;
16310;SDS011;8264;48.510;8.872;2022-11-14T05:43:33;11.93;;;9.47;;
16310;SDS011;8264;48.510;8.872;2022-11-14T05:46:01;17.60;;;13.30;;
16310;SDS011;8264;48.510;8.872;2022-11-14T05:48:29;16.27;;;11.70;;
16310;SDS011;8264;48.510;8.872;2022-11-14T05:50:56;21.90;;;15.40;;
16310;SDS011;8264;48.510;8.872;2022-11-14T05:53:24;21.53;;;14.60;;
16310;SDS011;8264;48.510;8.872;2022-11-14T05:55:50;18.63;;;14.47;;
16310;SDS011;8264;48.510;8.872;2022-11-14T05:58:17;16.80;;;12.73;;
16310;SDS011;8264;48.510;8.872;2022-11-14T06:00:44;19.77;;;14.07;;
16310;SDS011;8264;48.510;8.872;2022-11-14T06:03:12;30.60;;;20.97;;
16310;SDS011;8264;48.510;8.872;2022-11-14T06:05:39;32.33;;;20.57;;
16310;SDS011;8264;48.510;8.872;2022-11-14T06:08:06;23.67;;;17.37;;
16310;SDS011;8264;48.510;8.872;2022-11-14T06:10:33;38.23;;;24.67;;
16310;SDS011;8264;48.510;8.872;2022-11-14T06:12:59;16.97;;;12.73;;
16310;SDS011;8264;48.510;8.872;2022-11-14T06:15:26;13.90;;;10.10;;
16310;SDS011;8264;48.510;8.872;2022-11-14T06:17:53;12.83;;;9.40;;
16310;SDS011;8264;48.510;8.872;2022-11-14T06:20:21;12.60;;;9.57;;
16310;SDS011;8264;48.510;8.872;2022-11-14T06:22:47;15.17;;;9.73;;
16310;SDS011;8264;48.510;8.872;2022-11-14T06:25:14;15.43;;;9.40;;
16310;SDS011;8264;48.510;8.872;2022-11-14T06:27:40;11.13;;;9.20;;
16310;SDS011;8264;48.510;8.872;2022-11-14T06:30:07;11.00;;;8.37;;
16310;SDS011;8264;48.510;8.872;2022-11-14T06:32:35;9.33;;;7.90;;
16310;SDS011;8264;48.510;8.872;2022-11-14T06:35:01;10.17;;;8.57;;
16310;SDS011;8264;48.510;8.872;2022-11-14T06:37:30;12.87;;;8.90;;
16310;SDS011;8264;48.510;8.872;2022-11-14T06:39:56;13.33;;;8.87;;
16310;SDS011;8264;48.510;8.872;2022-11-14T06:42:22;11.67;;;8.50;;
16310;SDS011;8264;48.510;8.872;2022-11-14T06:44:49;10.53;;;7.70;;
16310;SDS011;8264;48.510;8.872;2022-11-14T06:47:15;10.73;;;7.67;;
16310;SDS011;8264;48.510;8.872;2022-11-14T06:49:42;11.10;;;9.07;;
16310;SDS011;8264;48.510;8.872;2022-11-14T06:52:08;10.53;;;8.37;;
16310;SDS011;8264;48.510;8.872;2022-11-14T06:54:36;9.60;;;8.20;;
16310;SDS011;8264;48.510;8.872;2022-11-14T06:57:03;10.83;;;8.80;;
16310;SDS011;8264;48.510;8.872;2022-11-14T06:59:30;11.33;;;8.07;;
16310;SDS011;8264;48.510;8.872;2022-11-14T07:01:56;10.67;;;8.30;;
16310;SDS011;8264;48.510;8.872;2022-11-14T07:04:22;11.10;;;8.40;;
16310;SDS011;8264;48.510;8.872;2022-11-14T07:06:49;9.37;;;7.77;;
16310;SDS011;8264;48.510;8.872;2022-11-14T07:11:44;11.37;;;8.90;;
16310;SDS011;8264;48.510;8.872;2022-11-14T07:14:11;10.60;;;9.03;;
16310;SDS011;8264;48.510;8.872;2022-11-14T07:16:38;11.87;;;9.13;;
16310;SDS011;8264;48.510;8.872;2022-11-14T07:19:05;12.37;;;9.80;;
16310;SDS011;8264;48.510;8.872;2022-11-14T07:21:33;11.60;;;8.83;;
16310;SDS011;8264;48.510;8.872;2022-11-14T07:23:59;15.03;;;8.87;;
16310;SDS011;8264;48.510;8.872;2022-11-14T07:26:26;11.73;;;7.80;;
16310;SDS011;8264;48.510;8.872;2022-11-14T07:28:54;17.43;;;10.03;;
16310;SDS011;8264;48.510;8.872;2022-11-14T07:31:20;14.40;;;10.07;;
16310;SDS011;8264;48.510;8.872;2022-11-14T07:33:47;11.80;;;9.50;;
16310;SDS011;8264;48.510;8.872;2022-11-14T07:36:14;14.77;;;10.60;;
16310;SDS011;8264;48.510;8.872;2022-11-14T07:38:41;13.57;;;9.23;;
16310;SDS011;8264;48.510;8.872;2022-11-14T07:41:08;11.30;;;9.80;;
16310;SDS011;8264;48.510;8.872;2022-11-14T07:43:35;11.03;;;9.00;;
16310;SDS011;8264;48.510;8.872;2022-11-14T07:46:04;9.80;;;8.53;;
16310;SDS011;8264;48.510;8.872;2022-11-14T07:48:32;12.80;;;9.60;;
16310;SDS011;8264;48.510;8.872;2022-11-14T07:50:59;11.27;;;9.27;;
16310;SDS011;8264;48.510;8.872;2022-11-14T07:53:26;11.57;;;10.10;;
16310;SDS011;8264;48.510;8.872;2022-11-14T07:55:52;14.10;;;11.67;;
16310;SDS011;8264;48.510;8.872;2022-11-14T07:58:19;13.00;;;10.33;;
16310;SDS011;8264;48.510;8.872;2022-11-14T08:00:45;14.67;;;10.90;;
16310;SDS011;8264;48.510;8.872;2022-11-14T08:03:13;13.00;;;11.07;;
16310;SDS011;8264;48.510;8.872;2022-11-14T08:05:40;17.27;;;11.90;;
16310;SDS011;8264;48.510;8.872;2022-11-14T08:08:06;14.57;;;11.77;;
16310;SDS011;8264;48.510;8.872;2022-11-14T08:10:33;12.57;;;9.87;;
16310;SDS011;8264;48.510;8.872;2022-11-14T08:13:00;12.90;;;9.10;;
16310;SDS011;8264;48.510;8.872;2022-11-14T08:15:27;12.00;;;9.07;;
16310;SDS011;8264;48.510;8.872;2022-11-14T08:17:55;10.40;;;8.03;;
16310;SDS011;8264;48.510;8.872;2022-11-14T08:20:24;8.83;;;7.30;;
16310;SDS011;8264;48.510;8.872;2022-11-14T08:22:50;7.47;;;6.67;;
16310;SDS011;8264;48.510;8.872;2022-11-14T08:25:17;7.00;;;6.30;;
16310;SDS011;8264;48.510;8.872;2022-11-14T08:27:44;10.37;;;7.10;;
16310;SDS011;8264;48.510;8.872;2022-11-14T08:30:10;8.10;;;6.80;;
16310;SDS011;8264;48.510;8.872;2022-11-14T08:32:38;7.10;;;6.17;;
16310;SDS011;8264;48.510;8.872;2022-11-14T08:35:04;6.93;;;6.23;;
16310;SDS011;8264;48.510;8.872;2022-11-14T08:37:32;6.87;;;5.97;;
16310;SDS011;8264;48.510;8.872;2022-11-14T08:39:59;7.37;;;6.23;;
16310;SDS011;8264;48.510;8.872;2022-11-14T08:42:25;6.83;;;5.50;;
16310;SDS011;8264;48.510;8.872;2022-11-14T08:44:52;5.90;;;5.23;;
16310;SDS011;8264;48.510;8.872;2022-11-14T08:47:19;5.00;;;4.50;;
16310;SDS011;8264;48.510;8.872;2022-11-14T08:49:45;5.40;;;4.90;;
16310;SDS011;8264;48.510;8.872;2022-11-14T08:52:12;6.73;;;5.07;;
16310;SDS011;8264;48.510;8.872;2022-11-14T08:54:40;7.07;;;6.37;;
16310;SDS011;8264;48.510;8.872;2022-11-14T08:57:06;6.70;;;5.60;;
16310;SDS011;8264;48.510;8.872;2022-11-14T08:59:33;8.53;;;5.63;;
16310;SDS011;8264;48.510;8.872;2022-11-14T09:01:59;7.77;;;6.97;;
16310;SDS011;8264;48.510;8.872;2022-11-14T09:04:26;6.87;;;5.57;;
16310;SDS011;8264;48.510;8.872;2022-11-14T09:06:52;7.47;;;6.60;;
16310;SDS011;8264;48.510;8.872;2022-11-14T09:09:19;10.97;;;7.17;;
16310;SDS011;8264;48.510;8.872;2022-11-14T09:11:47;8.93;;;6.67;;
16310;SDS011;8264;48.510;8.872;2022-11-14T09:14:13;9.27;;;6.27;;
16310;SDS011;8264;48.510;8.872;2022-11-14T09:16:40;7.67;;;6.77;;
16310;SDS011;8264;48.510;8.872;2022-11-14T09:19:06;10.23;;;6.83;;
16310;SDS011;8264;48.510;8.872;2022-11-14T09:21:33;9.60;;;7.90;;
16310;SDS011;8264;48.510;8.872;2022-11-14T09:23:59;12.33;;;8.53;;
16310;SDS011;8264;48.510;8.872;2022-11-14T09:26:26;12.80;;;10.03;;
16310;SDS011;8264;48.510;8.872;2022-11-14T09:28:54;12.47;;;9.30;;
16310;SDS011;8264;48.510;8.872;2022-11-14T09:31:20;11.50;;;9.57;;
16310;SDS011;8264;48.510;8.872;2022-11-14T09:33:47;14.63;;;10.47;;
16310;SDS011;8264;48.510;8.872;2022-11-14T09:36:13;14.30;;;10.33;;
16310;SDS011;8264;48.510;8.872;2022-11-14T09:38:42;13.70;;;10.10;;
16310;SDS011;8264;48.510;8.872;2022-11-14T09:41:14;12.80;;;10.00;;
16310;SDS011;8264;48.510;8.872;2022-11-14T09:46:43;11.63;;;8.27;;
16310;SDS011;8264;48.510;8.872;2022-11-14T09:49:24;8.87;;;7.63;;
16310;SDS011;8264;48.510;8.872;2022-11-14T09:51:53;9.47;;;7.03;;
16310;SDS011;8264;48.510;8.872;2022-11-14T09:54:24;8.73;;;7.37;;
16310;SDS011;8264;48.510;8.872;2022-11-14T09:56:52;7.83;;;6.87;;
16310;SDS011;8264;48.510;8.872;2022-11-14T09:59:20;10.83;;;5.70;;
16310;SDS011;8264;48.510;8.872;2022-11-14T10:01:48;7.77;;;6.23;;
16310;SDS011;8264;48.510;8.872;2022-11-14T10:04:22;7.03;;;5.47;;
16310;SDS011;8264;48.510;8.872;2022-11-14T10:06:53;11.03;;;5.20;;
16310;SDS011;8264;48.510;8.872;2022-11-14T10:09:48;10.27;;;5.27;;
16310;SDS011;8264;48.510;8.872;2022-11-14T10:12:17;8.20;;;5.13;;
16310;SDS011;8264;48.510;8.872;2022-11-14T10:14:54;8.03;;;5.20;;
16310;SDS011;8264;48.510;8.872;2022-11-14T10:17:34;8.50;;;4.27;;
16310;SDS011;8264;48.510;8.872;2022-11-14T10:20:08;6.23;;;4.90;;
16310;SDS011;8264;48.510;8.872;2022-11-14T10:22:43;4.93;;;3.73;;
16310;SDS011;8264;48.510;8.872;2022-11-14T10:25:23;4.27;;;3.30;;
16310;SDS011;8264;48.510;8.872;2022-11-14T10:27:54;5.33;;;3.20;;
16310;SDS011;8264;48.510;8.872;2022-11-14T10:30:31;3.60;;;2.90;;
16310;SDS011;8264;48.510;8.872;2022-11-14T10:33:08;5.87;;;2.60;;
16310;SDS011;8264;48.510;8.872;2022-11-14T10:35:44;3.07;;;2.03;;
16310;SDS011;8264;48.510;8.872;2022-11-14T10:38:15;5.07;;;1.97;;
16310;SDS011;8264;48.510;8.872;2022-11-14T10:40:44;2.90;;;2.00;;
16310;SDS011;8264;48.510;8.872;2022-11-14T10:43:15;2.43;;;1.77;;
16310;SDS011;8264;48.510;8.872;2022-11-14T10:45:48;1.47;;;1.37;;
16310;SDS011;8264;48.510;8.872;2022-11-14T10:48:19;2.10;;;1.90;;
16310;SDS011;8264;48.510;8.872;2022-11-14T10:50:57;3.13;;;1.60;;
16310;SDS011;8264;48.510;8.872;2022-11-14T10:53:26;3.80;;;1.50;;
16310;SDS011;8264;48.510;8.872;2022-11-14T10:55:59;3.70;;;1.37;;
16310;SDS011;8264;48.510;8.872;2022-11-14T10:58:25;1.90;;;1.50;;
16310;SDS011;8264;48.510;8.872;2022-11-14T11:00:53;1.87;;;1.47;;
16310;SDS011;8264;48.510;8.872;2022-11-14T11:03:20;1.87;;;1.47;;
16310;SDS011;8264;48.510;8.872;2022-11-14T11:06:08;1.73;;;1.20;;
16310;SDS011;8264;48.510;8.872;2022-11-14T11:08:50;1.73;;;1.17;;
16310;SDS011;8264;48.510;8.872;2022-11-14T11:11:35;1.80;;;1.47;;
16310;SDS011;8264;48.510;8.872;2022-11-14T11:14:03;1.57;;;1.37;;
16310;SDS011;8264;48.510;8.872;2022-11-14T11:16:31;1.50;;;1.40;;
16310;SDS011;8264;48.510;8.872;2022-11-14T11:19:12;1.30;;;1.20;;
16310;SDS011;8264;48.510;8.872;2022-11-14T11:21:45;4.50;;;2.00;;
16310;SDS011;8264;48.510;8.872;2022-11-14T11:24:12;2.43;;;1.73;;
16310;SDS011;8264;48.510;8.872;2022-11-14T11:29:37;2.50;;;1.73;;
16310;SDS011;8264;48.510;8.872;2022-11-14T11:32:06;5.03;;;2.03;;
16310;SDS011;8264;48.510;8.872;2022-11-14T11:34:33;3.63;;;1.80;;
16310;SDS011;8264;48.510;8.872;2022-11-14T11:37:01;2.70;;;1.80;;
16310;SDS011;8264;48.510;8.872;2022-11-14T11:39:30;2.10;;;1.60;;
16310;SDS011;8264;48.510;8.872;2022-11-14T11:41:59;2.67;;;1.77;;
16310;SDS011;8264;48.510;8.872;2022-11-14T11:44:31;2.20;;;1.90;;
16310;SDS011;8264;48.510;8.872;2022-11-14T11:47:00;1.57;;;1.47;;
16310;SDS011;8264;48.510;8.872;2022-11-14T11:49:34;1.50;;;1.40;;
16310;SDS011;8264;48.510;8.872;2022-11-14T11:52:03;2.20;;;1.50;;
16310;SDS011;8264;48.510;8.872;2022-11-14T11:54:32;2.37;;;1.80;;
16310;SDS011;8264;48.510;8.872;2022-11-14T11:57:11;2.37;;;1.80;;
16310;SDS011;8264;48.510;8.872;2022-11-14T11:59:39;2.37;;;2.13;;
16310;SDS011;8264;48.510;8.872;2022-11-14T12:02:13;3.73;;;1.83;;
16310;SDS011;8264;48.510;8.872;2022-11-14T12:04:46;7.03;;;1.93;;
16310;SDS011;8264;48.510;8.872;2022-11-14T12:07:15;1.93;;;1.70;;
16310;SDS011;8264;48.510;8.872;2022-11-14T12:09:44;1.50;;;1.40;;
16310;SDS011;8264;48.510;8.872;2022-11-14T12:12:12;4.93;;;1.50;;
16310;SDS011;8264;48.510;8.872;2022-11-14T12:14:47;2.47;;;1.60;;
16310;SDS011;8264;48.510;8.872;2022-11-14T12:20:39;1.73;;;1.40;;
16310;SDS011;8264;48.510;8.872;2022-11-14T12:23:24;2.17;;;1.90;;
16310;SDS011;8264;48.510;8.872;2022-11-14T12:26:01;2.87;;;1.80;;
16310;SDS011;8264;48.510;8.872;2022-11-14T12:31:30;2.37;;;1.70;;
16310;SDS011;8264;48.510;8.872;2022-11-14T12:34:00;2.37;;;1.60;;
16310;SDS011;8264;48.510;8.872;2022-11-14T12:36:31;2.83;;;1.80;;
16310;SDS011;8264;48.510;8.872;2022-11-14T12:38:59;2.93;;;1.60;;
16310;SDS011;8264;48.510;8.872;2022-11-14T12:41:27;2.00;;;1.53;;
16310;SDS011;8264;48.510;8.872;2022-11-14T12:49:58;2.13;;;1.60;;
16310;SDS011;8264;48.510;8.872;2022-11-14T12:52:41;1.67;;;1.57;;
16310;SDS011;8264;48.510;8.872;2022-11-14T12:58:10;2.03;;;1.43;;
16310;SDS011;8264;48.510;8.872;2022-11-14T13:00:38;3.50;;;1.90;;
16310;SDS011;8264;48.510;8.872;2022-11-14T13:03:35;1.97;;;1.63;;
16310;SDS011;8264;48.510;8.872;2022-11-14T13:06:06;2.67;;;1.77;;
16310;SDS011;8264;48.510;8.872;2022-11-14T13:08:48;2.33;;;1.70;;
16310;SDS011;8264;48.510;8.872;2022-11-14T13:11:40;2.57;;;1.57;;
16310;SDS011;8264;48.510;8.872;2022-11-14T13:14:25;2.83;;;1.80;;
16310;SDS011;8264;48.510;8.872;2022-11-14T13:17:15;1.97;;;1.70;;
16310;SDS011;8264;48.510;8.872;2022-11-14T13:23:21;2.73;;;1.80;;
16310;SDS011;8264;48.510;8.872;2022-11-14T13:26:34;2.00;;;1.37;;
16310;SDS011;8264;48.510;8.872;2022-11-14T13:29:02;1.97;;;1.73;;
16310;SDS011;8264;48.510;8.872;2022-11-14T13:31:41;2.33;;;2.13;;
16310;SDS011;8264;48.510;8.872;2022-11-14T13:34:31;2.43;;;1.87;;
16310;SDS011;8264;48.510;8.872;2022-11-14T13:37:04;2.67;;;1.80;;
16310;SDS011;8264;48.510;8.872;2022-11-14T13:39:41;2.10;;;1.70;;
16310;SDS011;8264;48.510;8.872;2022-11-14T13:42:19;2.53;;;1.87;;
16310;SDS011;8264;48.510;8.872;2022-11-14T13:45:00;2.33;;;2.07;;
16310;SDS011;8264;48.510;8.872;2022-11-14T13:50:56;3.10;;;1.97;;
16310;SDS011;8264;48.510;8.872;2022-11-14T13:53:25;3.60;;;1.97;;
16310;SDS011;8264;48.510;8.872;2022-11-14T13:55:58;3.00;;;1.77;;
16310;SDS011;8264;48.510;8.872;2022-11-14T13:58:37;4.50;;;2.00;;
16310;SDS011;8264;48.510;8.872;2022-11-14T14:01:15;2.57;;;2.00;;
16310;SDS011;8264;48.510;8.872;2022-11-14T14:03:55;2.37;;;1.87;;
16310;SDS011;8264;48.510;8.872;2022-11-14T14:06:31;2.63;;;2.00;;
16310;SDS011;8264;48.510;8.872;2022-11-14T14:09:12;2.27;;;1.87;;
16310;SDS011;8264;48.510;8.872;2022-11-14T14:11:49;2.53;;;2.00;;
16310;SDS011;8264;48.510;8.872;2022-11-14T14:17:11;2.47;;;1.90;;
16310;SDS011;8264;48.510;8.872;2022-11-14T14:19:46;3.13;;;2.30;;
16310;SDS011;8264;48.510;8.872;2022-11-14T14:22:21;5.63;;;2.47;;
16310;SDS011;8264;48.510;8.872;2022-11-14T14:24:54;3.47;;;2.30;;
16310;SDS011;8264;48.510;8.872;2022-11-14T14:27:28;3.03;;;2.27;;
16310;SDS011;8264;48.510;8.872;2022-11-14T14:30:01;2.10;;;1.90;;
16310;SDS011;8264;48.510;8.872;2022-11-14T14:32:32;3.00;;;2.30;;
16310;SDS011;8264;48.510;8.872;2022-11-14T14:34:58;3.20;;;2.17;;
16310;SDS011;8264;48.510;8.872;2022-11-14T14:37:26;6.80;;;2.53;;
16310;SDS011;8264;48.510;8.872;2022-11-14T14:39:57;2.63;;;1.90;;
16310;SDS011;8264;48.510;8.872;2022-11-14T14:42:24;2.40;;;2.20;;
16310;SDS011;8264;48.510;8.872;2022-11-14T14:44:53;4.37;;;2.60;;
16310;SDS011;8264;48.510;8.872;2022-11-14T14:47:35;4.07;;;2.60;;
16310;SDS011;8264;48.510;8.872;2022-11-14T14:50:05;4.17;;;2.43;;
16310;SDS011;8264;48.510;8.872;2022-11-14T14:52:38;3.20;;;2.27;;
16310;SDS011;8264;48.510;8.872;2022-11-14T14:55:05;3.37;;;2.30;;
16310;SDS011;8264;48.510;8.872;2022-11-14T14:57:41;4.83;;;2.80;;
16310;SDS011;8264;48.510;8.872;2022-11-14T15:00:16;4.20;;;2.43;;
16310;SDS011;8264;48.510;8.872;2022-11-14T15:02:45;4.47;;;2.50;;
16310;SDS011;8264;48.510;8.872;2022-11-14T15:05:20;3.67;;;2.70;;
16310;SDS011;8264;48.510;8.872;2022-11-14T15:07:47;4.20;;;2.50;;
16310;SDS011;8264;48.510;8.872;2022-11-14T15:10:17;3.73;;;2.63;;
16310;SDS011;8264;48.510;8.872;2022-11-14T15:12:45;3.17;;;2.47;;
16310;SDS011;8264;48.510;8.872;2022-11-14T15:15:12;3.53;;;2.40;;
16310;SDS011;8264;48.510;8.872;2022-11-14T15:17:42;3.70;;;2.80;;
16310;SDS011;8264;48.510;8.872;2022-11-14T15:20:19;3.57;;;2.60;;
16310;SDS011;8264;48.510;8.872;2022-11-14T15:23:00;4.20;;;2.47;;
16310;SDS011;8264;48.510;8.872;2022-11-14T15:25:28;3.10;;;2.60;;
16310;SDS011;8264;48.510;8.872;2022-11-14T15:27:55;3.57;;;3.00;;
16310;SDS011;8264;48.510;8.872;2022-11-14T15:30:25;3.83;;;3.23;;
16310;SDS011;8264;48.510;8.872;2022-11-14T15:32:55;4.33;;;3.17;;
16310;SDS011;8264;48.510;8.872;2022-11-14T15:35:24;4.90;;;3.13;;
16310;SDS011;8264;48.510;8.872;2022-11-14T15:43:35;4.83;;;3.70;;
16310;SDS011;8264;48.510;8.872;2022-11-14T15:46:22;4.67;;;3.27;;
16310;SDS011;8264;48.510;8.872;2022-11-14T15:48:51;4.57;;;3.23;;